createdAt,value
2018-01-08T00:00:00.242Z,34.10
2018-01-08T00:02:26.580Z,31.37
2018-01-08T00:04:53.096Z,31.73
2018-01-08T00:07:19.322Z,29.63
2018-01-08T00:09:45.552Z,31.50
2018-01-08T00:12:12.552Z,31.37
2018-01-08T00:14:38.765Z,32.00
2018-01-08T00:17:05.299Z,31.33
2018-01-08T00:19:32.277Z,30.52
2018-01-08T00:21:58.536Z,31.67
2018-01-08T00:24:24.790Z,30.77
2018-01-08T00:26:51.012Z,31.10
2018-01-08T00:29:17.295Z,31.42
2018-01-08T00:31:43.549Z,31.98
2018-01-08T00:34:09.796Z,31.83
2018-01-08T00:36:36.841Z,31.08
2018-01-08T00:39:03.185Z,27.20
2018-01-08T00:41:29.430Z,29.10
2018-01-08T00:43:56.691Z,28.42
2018-01-08T00:46:23.205Z,30.33
2018-01-08T00:48:49.436Z,31.23
2018-01-08T00:51:15.681Z,31.17
2018-01-08T00:53:41.924Z,32.10
2018-01-08T00:56:08.172Z,28.70
2018-01-08T00:58:34.423Z,30.08
2018-01-08T01:01:00.680Z,28.38
2018-01-08T01:03:26.942Z,27.45
2018-01-08T01:05:53.941Z,28.73
2018-01-08T01:08:20.177Z,29.30
2018-01-08T01:10:46.424Z,27.00
2018-01-08T01:13:12.667Z,29.60
2018-01-08T01:15:38.892Z,28.50
2018-01-08T01:18:05.395Z,28.98
2018-01-08T01:20:31.637Z,26.20
2018-01-08T01:22:57.868Z,27.83
2018-01-08T01:25:24.127Z,26.62
2018-01-08T01:27:51.115Z,27.20
2018-01-08T01:30:17.378Z,28.42
2018-01-08T01:32:43.645Z,28.23
2018-01-08T01:35:09.918Z,29.00
2018-01-08T01:37:36.969Z,26.90
2018-01-08T01:40:04.247Z,25.33
2018-01-08T01:42:30.499Z,26.37
2018-01-08T01:44:56.720Z,26.83
2018-01-08T01:47:23.024Z,26.08
2018-01-08T01:49:49.184Z,25.42
2018-01-08T01:52:15.420Z,23.85
2018-01-08T01:54:41.667Z,26.35
2018-01-08T01:57:07.964Z,25.40
2018-01-08T01:59:34.198Z,25.52
2018-01-08T02:02:00.467Z,25.25
2018-01-08T02:04:26.708Z,24.35
2018-01-08T02:06:52.945Z,25.35
2018-01-08T02:09:19.201Z,25.42
2018-01-08T02:11:45.436Z,25.83
2018-01-08T02:14:11.683Z,24.42
2018-01-08T02:16:37.913Z,25.30
2018-01-08T02:19:04.419Z,23.62
2018-01-08T02:21:30.669Z,25.30
2018-01-08T02:23:56.913Z,23.20
2018-01-08T02:26:23.155Z,24.60
2018-01-08T02:28:50.409Z,23.73
2018-01-08T02:31:16.662Z,27.37
2018-01-08T02:33:42.922Z,22.35
2018-01-08T02:36:09.849Z,24.20
2018-01-08T02:38:36.077Z,25.92
2018-01-08T02:41:02.315Z,24.80
2018-01-08T02:43:28.574Z,24.77
2018-01-08T02:45:54.817Z,22.85
2018-01-08T02:48:21.121Z,23.65
2018-01-08T02:50:47.308Z,24.83
2018-01-08T02:53:13.805Z,24.92
2018-01-08T02:55:40.041Z,22.02
2018-01-08T02:58:07.023Z,24.15
2018-01-08T03:00:33.277Z,23.15
2018-01-08T03:02:59.525Z,23.40
2018-01-08T03:05:25.789Z,23.83
2018-01-08T03:07:52.032Z,21.83
2018-01-08T03:10:18.310Z,21.73
2018-01-08T03:12:45.305Z,23.58
2018-01-08T03:15:11.606Z,22.35
2018-01-08T03:17:37.985Z,22.85
2018-01-08T03:20:04.431Z,22.70
2018-01-08T03:22:30.696Z,22.30
2018-01-08T03:24:56.924Z,24.10
2018-01-08T03:27:23.195Z,23.25
2018-01-08T03:29:49.435Z,22.27
2018-01-08T03:32:15.688Z,23.02
2018-01-08T03:34:41.924Z,21.48
2018-01-08T03:37:08.470Z,22.52
2018-01-08T03:39:34.729Z,21.87
2018-01-08T03:42:01.719Z,20.77
2018-01-08T03:44:28.220Z,20.80
2018-01-08T03:46:54.504Z,21.75
2018-01-08T03:49:20.767Z,22.87
2018-01-08T03:51:47.009Z,23.65
2018-01-08T03:54:13.824Z,20.90
2018-01-08T03:56:41.633Z,21.70
2018-01-08T03:59:07.876Z,20.52
2018-01-08T04:01:34.132Z,19.80
2018-01-08T04:04:00.352Z,20.15
2018-01-08T04:06:26.575Z,20.67
2018-01-08T04:08:52.822Z,19.98
2018-01-08T04:11:19.067Z,20.10
2018-01-08T04:13:45.332Z,20.42
2018-01-08T04:16:11.554Z,21.80
2018-01-08T04:18:37.790Z,25.62
2018-01-08T04:21:04.016Z,19.95
2018-01-08T04:23:30.295Z,21.15
2018-01-08T04:25:56.546Z,21.55
2018-01-08T04:28:22.797Z,22.05
2018-01-08T04:30:49.046Z,21.15
2018-01-08T04:33:16.055Z,21.98
2018-01-08T04:35:42.325Z,20.83
2018-01-08T04:38:08.614Z,20.92
2018-01-08T04:40:34.854Z,19.25
2018-01-08T04:43:01.094Z,19.77
2018-01-08T04:45:27.315Z,20.48
2018-01-08T04:47:54.300Z,21.40
2018-01-08T04:50:20.558Z,20.88
2018-01-08T04:52:46.777Z,20.15
2018-01-08T04:55:13.041Z,21.87
2018-01-08T04:57:39.297Z,19.35
2018-01-08T05:00:05.568Z,20.83
2018-01-08T05:02:32.564Z,20.98
2018-01-08T05:04:58.812Z,21.33
2018-01-08T05:07:25.077Z,19.77
2018-01-08T05:09:51.317Z,19.77
2018-01-08T05:12:17.553Z,23.10
2018-01-08T05:14:43.820Z,19.92
2018-01-08T05:17:10.052Z,20.25
2018-01-08T05:19:36.312Z,20.00
2018-01-08T05:22:03.302Z,20.45
2018-01-08T05:24:29.532Z,20.42
2018-01-08T05:26:56.520Z,21.35
2018-01-08T05:29:22.752Z,21.87
2018-01-08T05:31:49.025Z,22.10
2018-01-08T05:34:16.389Z,20.37
2018-01-08T05:36:42.940Z,20.67
2018-01-08T05:39:09.186Z,21.33
2018-01-08T05:41:36.539Z,18.85
2018-01-08T05:44:03.137Z,21.20
2018-01-08T05:46:30.220Z,18.58
2018-01-08T05:48:56.520Z,18.62
2018-01-08T05:51:22.776Z,18.10
2018-01-08T05:53:49.765Z,18.67
2018-01-08T05:56:16.253Z,16.58
2018-01-08T05:58:42.482Z,16.70
2018-01-08T06:01:08.750Z,16.90
2018-01-08T06:03:36.550Z,15.98
2018-01-08T06:06:02.844Z,16.65
2018-01-08T06:08:29.080Z,15.95
2018-01-08T06:10:56.286Z,16.50
2018-01-08T06:13:22.998Z,16.85
2018-01-08T06:15:49.237Z,13.25
2018-01-08T06:18:15.484Z,15.63
2018-01-08T06:20:41.735Z,14.52
2018-01-08T06:23:07.976Z,16.10
2018-01-08T06:25:35.472Z,14.80
2018-01-08T06:28:01.921Z,14.98
2018-01-08T06:30:28.167Z,15.40
2018-01-08T06:32:54.679Z,15.57
2018-01-08T06:35:20.972Z,16.17
2018-01-08T06:37:47.284Z,15.85
2018-01-08T06:40:13.518Z,17.48
2018-01-08T06:42:40.512Z,15.02
2018-01-08T06:45:06.768Z,16.02
2018-01-08T06:47:33.004Z,18.30
2018-01-08T06:49:59.288Z,16.80
2018-01-08T06:52:26.262Z,16.42
2018-01-08T06:54:53.216Z,17.60
2018-01-08T06:57:20.225Z,17.37
2018-01-08T06:59:46.486Z,18.90
2018-01-08T07:02:12.763Z,17.50
2018-01-08T07:04:38.999Z,18.58
2018-01-08T07:07:05.647Z,19.17
2018-01-08T07:09:32.672Z,17.60
2018-01-08T07:11:58.910Z,17.55
2018-01-08T07:14:25.204Z,19.05
2018-01-08T07:16:51.519Z,19.58
2018-01-08T07:19:17.784Z,17.20
2018-01-08T07:21:44.435Z,16.87
2018-01-08T07:24:10.891Z,18.50
2018-01-08T07:26:37.164Z,17.55
2018-01-08T07:29:04.832Z,16.40
2018-01-08T07:31:31.128Z,17.62
2018-01-08T07:33:58.113Z,17.83
2018-01-08T07:36:25.397Z,17.70
2018-01-08T07:38:51.651Z,18.35
2018-01-08T07:41:17.887Z,18.25
2018-01-08T07:43:44.145Z,16.75
2018-01-08T07:46:10.384Z,18.35
2018-01-08T07:48:36.650Z,17.77
2018-01-08T07:51:03.623Z,15.95
2018-01-08T07:53:29.855Z,18.65
2018-01-08T07:55:56.375Z,17.50
2018-01-08T07:58:23.325Z,17.70
2018-01-08T08:00:49.589Z,16.75
2018-01-08T08:03:15.872Z,16.87
2018-01-08T08:05:42.094Z,18.17
2018-01-08T08:08:08.365Z,17.10
2018-01-08T08:10:34.603Z,15.05
2018-01-08T08:13:00.904Z,16.75
2018-01-08T08:15:27.889Z,16.10
2018-01-08T08:17:54.173Z,16.52
2018-01-08T08:20:20.430Z,16.15
2018-01-08T08:22:47.416Z,17.05
2018-01-08T08:25:13.723Z,16.02
2018-01-08T08:27:40.710Z,15.35
2018-01-08T08:30:06.974Z,16.83
2018-01-08T08:32:33.213Z,16.15
2018-01-08T08:34:59.472Z,16.55
2018-01-08T08:37:25.753Z,16.37
2018-01-08T08:39:52.730Z,16.05
2018-01-08T08:42:18.994Z,16.48
2018-01-08T08:44:45.234Z,14.15
2018-01-08T08:47:11.790Z,14.15
2018-01-08T08:49:38.046Z,15.85
2018-01-08T08:52:04.292Z,15.25
2018-01-08T08:54:30.558Z,15.30
2018-01-08T08:56:57.544Z,21.62
2018-01-08T08:59:23.785Z,14.13
2018-01-08T09:01:50.038Z,16.80
2018-01-08T09:04:16.282Z,16.55
2018-01-08T09:06:42.515Z,19.42
2018-01-08T09:09:08.740Z,14.32
2018-01-08T09:11:34.991Z,18.12
2018-01-08T09:14:01.273Z,16.27
2018-01-08T09:16:27.528Z,14.20
2018-01-08T09:18:54.639Z,13.10
2018-01-08T09:21:20.894Z,12.25
2018-01-08T09:23:47.171Z,13.40
2018-01-08T09:26:13.632Z,12.00
2018-01-08T09:28:40.628Z,12.55
2018-01-08T09:31:06.887Z,10.02
2018-01-08T09:33:33.198Z,12.73
2018-01-08T09:36:00.152Z,12.25
2018-01-08T09:38:26.397Z,12.02
2018-01-08T09:40:52.674Z,13.52
2018-01-08T09:43:18.890Z,13.15
2018-01-08T09:45:45.144Z,11.32
2018-01-08T09:48:11.411Z,11.55
2018-01-08T09:50:37.652Z,11.77
2018-01-08T09:53:04.186Z,11.93
2018-01-08T09:55:30.421Z,11.23
2018-01-08T09:57:56.668Z,11.55
2018-01-08T10:00:22.942Z,11.82
2018-01-08T10:03:01.387Z,11.90
2018-01-08T10:05:39.664Z,11.68
2018-01-08T10:08:17.963Z,12.10
2018-01-08T10:10:56.278Z,12.63
2018-01-08T10:13:34.755Z,11.70
2018-01-08T10:16:13.215Z,11.30
2018-01-08T10:18:40.013Z,10.65
2018-01-08T10:21:06.292Z,13.05
2018-01-08T10:23:33.305Z,12.37
2018-01-08T10:25:59.620Z,12.25
2018-01-08T10:28:25.913Z,12.50
2018-01-08T10:30:52.247Z,11.85
2018-01-08T10:33:18.508Z,11.75
2018-01-08T10:35:44.784Z,11.18
2018-01-08T10:38:11.063Z,12.98
2018-01-08T10:40:37.354Z,10.45
2018-01-08T10:43:10.368Z,11.10
2018-01-08T10:45:42.718Z,11.35
2018-01-08T10:48:15.029Z,11.98
2018-01-08T10:50:47.365Z,12.02
2018-01-08T10:53:15.283Z,11.05
2018-01-08T10:55:41.593Z,12.43
2018-01-08T10:58:07.910Z,12.52
2018-01-08T11:00:34.205Z,11.45
2018-01-08T11:03:07.281Z,10.20
2018-01-08T11:05:33.591Z,11.00
2018-01-08T11:07:59.841Z,10.18
2018-01-08T11:10:26.137Z,11.55
2018-01-08T11:12:53.177Z,11.30
2018-01-08T11:15:19.493Z,10.38
2018-01-08T11:17:45.764Z,10.50
2018-01-08T11:20:12.051Z,11.35
2018-01-08T11:22:38.325Z,10.35
2018-01-08T11:25:04.562Z,11.55
2018-01-08T11:27:30.848Z,10.60
2018-01-08T11:29:57.135Z,10.00
2018-01-08T11:32:23.393Z,12.25
2018-01-08T11:34:49.662Z,12.90
2018-01-08T11:37:16.684Z,13.00
2018-01-08T11:39:43.004Z,12.60
2018-01-08T11:42:09.300Z,11.85
2018-01-08T11:44:36.302Z,11.98
2018-01-08T11:47:02.570Z,11.85
2018-01-08T11:49:28.855Z,11.43
2018-01-08T11:51:55.890Z,11.60
2018-01-08T11:54:22.224Z,12.43
2018-01-08T11:56:48.514Z,9.98
2018-01-08T11:59:14.788Z,11.10
2018-01-08T12:01:41.107Z,11.68
2018-01-08T12:04:07.402Z,10.07
2018-01-08T12:06:33.767Z,9.73
2018-01-08T12:09:00.083Z,9.90
2018-01-08T12:11:26.456Z,10.60
2018-01-08T12:13:52.863Z,10.05
2018-01-08T12:16:19.922Z,9.90
2018-01-08T12:18:46.222Z,10.98
2018-01-08T12:21:12.492Z,9.77
2018-01-08T12:23:38.749Z,11.23
2018-01-08T12:26:05.070Z,9.73
2018-01-08T12:28:31.333Z,10.00
2018-01-08T12:30:57.610Z,9.00
2018-01-08T12:33:24.612Z,12.02
2018-01-08T12:35:51.191Z,10.15
2018-01-08T12:38:17.568Z,9.50
2018-01-08T12:40:43.851Z,10.70
2018-01-08T12:43:10.171Z,14.87
2018-01-08T12:45:36.531Z,9.93
2018-01-08T12:48:02.857Z,10.55
2018-01-08T12:50:29.108Z,10.50
2018-01-08T12:52:55.656Z,8.90
2018-01-08T12:55:21.930Z,9.25
2018-01-08T12:57:48.215Z,10.48
2018-01-08T13:00:14.490Z,9.50
2018-01-08T13:02:40.770Z,10.95
2018-01-08T13:05:07.836Z,10.40
2018-01-08T13:07:34.864Z,11.30
2018-01-08T13:10:01.425Z,9.60
2018-01-08T13:12:27.717Z,8.02
2018-01-08T13:14:54.029Z,9.43
2018-01-08T13:17:21.068Z,10.77
2018-01-08T13:19:47.324Z,9.20
2018-01-08T13:22:14.344Z,9.00
2018-01-08T13:24:40.615Z,13.43
2018-01-08T13:27:06.913Z,9.43
2018-01-08T13:29:33.188Z,11.05
2018-01-08T13:31:59.478Z,9.10
2018-01-08T13:34:25.801Z,8.65
2018-01-08T13:36:52.799Z,9.50
2018-01-08T13:39:19.092Z,9.25
2018-01-08T13:41:45.385Z,9.25
2018-01-08T13:44:11.651Z,8.63
2018-01-08T13:46:37.985Z,9.77
2018-01-08T13:49:04.251Z,9.90
2018-01-08T13:51:30.543Z,9.45
2018-01-08T13:53:56.808Z,8.27
2018-01-08T13:56:24.047Z,10.07
2018-01-08T13:58:54.161Z,9.07
2018-01-08T14:01:20.494Z,9.40
2018-01-08T14:03:46.767Z,9.55
2018-01-08T14:06:13.054Z,10.32
2018-01-08T14:08:39.348Z,10.15
2018-01-08T14:11:05.624Z,9.00
2018-01-08T14:13:31.911Z,8.32
2018-01-08T14:15:58.225Z,8.55
2018-01-08T14:18:24.501Z,8.63
2018-01-08T14:20:50.741Z,8.93
2018-01-08T14:23:17.000Z,9.23
2018-01-08T14:25:43.299Z,8.48
2018-01-08T14:28:10.296Z,8.57
2018-01-08T14:30:36.563Z,9.02
2018-01-08T14:33:02.846Z,8.57
2018-01-08T14:35:36.111Z,8.52
2018-01-08T14:38:02.391Z,8.82
2018-01-08T14:40:28.663Z,8.73
2018-01-08T14:42:54.969Z,8.10
2018-01-08T14:45:21.991Z,9.27
2018-01-08T14:47:48.262Z,9.27
2018-01-08T14:50:14.539Z,9.20
2018-01-08T14:52:40.817Z,9.25
2018-01-08T14:55:07.118Z,8.88
2018-01-08T14:57:33.412Z,9.63
2018-01-08T14:59:59.678Z,8.35
2018-01-08T15:02:25.962Z,9.52
2018-01-08T15:04:52.256Z,8.82
2018-01-08T15:07:19.246Z,10.38
2018-01-08T15:09:45.524Z,9.38
2018-01-08T15:12:11.839Z,8.05
2018-01-08T15:14:38.078Z,9.93
2018-01-08T15:17:04.390Z,9.30
2018-01-08T15:19:31.383Z,9.02
2018-01-08T15:21:57.658Z,9.02
2018-01-08T15:24:23.945Z,9.15
2018-01-08T15:26:50.244Z,8.60
2018-01-08T15:29:16.531Z,10.13
2018-01-08T15:31:42.801Z,10.18
2018-01-08T15:34:09.056Z,11.02
2018-01-08T15:36:35.313Z,9.00
2018-01-08T15:39:01.584Z,10.35
2018-01-08T15:41:27.851Z,10.05
2018-01-08T15:43:54.092Z,10.10
2018-01-08T15:46:20.349Z,10.45
2018-01-08T15:48:46.597Z,10.75
2018-01-08T15:51:12.847Z,10.48
2018-01-08T15:53:39.089Z,9.90
2018-01-08T15:56:05.363Z,11.02
2018-01-08T15:58:31.611Z,11.95
2018-01-08T16:00:57.868Z,10.52
2018-01-08T16:03:24.163Z,11.80
2018-01-08T16:05:50.434Z,10.30
2018-01-08T16:08:17.447Z,10.95
2018-01-08T16:10:43.698Z,10.77
2018-01-08T16:13:09.975Z,10.60
2018-01-08T16:15:36.261Z,11.70
2018-01-08T16:18:02.533Z,12.40
2018-01-08T16:20:28.813Z,11.23
2018-01-08T16:22:55.791Z,11.35
2018-01-08T16:25:22.075Z,11.20
2018-01-08T16:27:48.350Z,10.43
2018-01-08T16:30:14.599Z,15.57
2018-01-08T16:32:40.875Z,10.30
2018-01-08T16:35:07.164Z,10.15
2018-01-08T16:37:33.407Z,11.45
2018-01-08T16:39:59.665Z,12.15
2018-01-08T16:42:25.950Z,11.05
2018-01-08T16:44:52.190Z,12.75
2018-01-08T16:47:18.436Z,11.55
2018-01-08T16:49:44.674Z,12.90
2018-01-08T16:52:10.956Z,12.55
2018-01-08T16:54:37.268Z,11.57
2018-01-08T16:57:03.505Z,10.68
2018-01-08T16:59:29.756Z,11.80
2018-01-08T17:01:56.762Z,11.90
2018-01-08T17:04:23.031Z,12.32
2018-01-08T17:06:49.330Z,11.73
2018-01-08T17:09:15.623Z,12.00
2018-01-08T17:11:41.892Z,12.05
2018-01-08T17:14:08.145Z,12.93
2018-01-08T17:16:34.408Z,11.90
2018-01-08T17:19:00.689Z,12.30
2018-01-08T17:21:26.945Z,12.15
2018-01-08T17:23:53.205Z,11.45
2018-01-08T17:26:19.488Z,11.07
2018-01-08T17:28:46.007Z,12.13
2018-01-08T17:31:12.303Z,12.02
2018-01-08T17:33:38.591Z,12.35
2018-01-08T17:36:04.884Z,10.02
2018-01-08T17:38:31.164Z,11.12
2018-01-08T17:40:57.427Z,11.35
2018-01-08T17:43:23.729Z,9.65
2018-01-08T17:45:50.762Z,11.85
2018-01-08T17:48:17.032Z,12.05
2018-01-08T17:50:44.047Z,11.38
2018-01-08T17:53:10.401Z,11.45
2018-01-08T17:55:36.991Z,10.23
2018-01-08T17:58:03.264Z,11.75
2018-01-08T18:00:29.556Z,9.70
2018-01-08T18:02:55.832Z,12.00
2018-01-08T18:05:22.107Z,12.07
2018-01-08T18:07:48.380Z,10.70
2018-01-08T18:10:15.441Z,10.30
2018-01-08T18:12:42.477Z,10.35
2018-01-08T18:15:08.778Z,9.90
2018-01-08T18:17:35.060Z,9.65
2018-01-08T18:20:01.384Z,9.32
2018-01-08T18:22:27.723Z,9.20
2018-01-08T18:24:53.987Z,9.15
2018-01-08T18:27:20.283Z,9.95
2018-01-08T18:29:46.594Z,10.10
2018-01-08T18:32:12.908Z,9.85
2018-01-08T18:34:39.240Z,9.07
2018-01-08T18:37:05.569Z,9.25
2018-01-08T18:39:31.909Z,10.13
2018-01-08T18:41:58.221Z,8.63
2018-01-08T18:44:24.545Z,10.00
2018-01-08T18:46:51.625Z,9.00
2018-01-08T18:49:17.933Z,9.45
2018-01-08T18:51:44.263Z,9.68
2018-01-08T18:54:10.548Z,9.23
2018-01-08T18:56:36.901Z,9.93
2018-01-08T18:59:03.205Z,11.85
2018-01-08T19:01:29.571Z,9.70
2018-01-08T19:03:55.921Z,10.15
2018-01-08T19:06:22.311Z,9.52
2018-01-08T19:08:48.657Z,9.13
2018-01-08T19:11:15.009Z,10.63
2018-01-08T19:13:41.641Z,9.88
2018-01-08T19:16:08.002Z,13.30
2018-01-08T19:18:34.380Z,9.18
2018-01-08T19:21:01.456Z,10.07
2018-01-08T19:23:27.806Z,10.25
2018-01-08T19:25:54.180Z,10.80
2018-01-08T19:28:20.529Z,10.32
2018-01-08T19:30:46.872Z,10.82
2018-01-08T19:33:13.223Z,10.82
2018-01-08T19:35:39.536Z,10.07
2018-01-08T19:38:05.900Z,10.75
2018-01-08T19:40:32.188Z,11.30
2018-01-08T19:42:58.542Z,10.40
2018-01-08T19:45:24.878Z,9.35
2018-01-08T19:47:51.203Z,10.85
2018-01-08T19:50:18.278Z,12.05
2018-01-08T19:52:52.371Z,10.07
2018-01-08T19:55:18.716Z,10.70
2018-01-08T19:57:45.971Z,10.55
2018-01-08T20:00:12.403Z,10.55
2018-01-08T20:02:38.814Z,10.93
2018-01-08T20:05:05.212Z,9.57
2018-01-08T20:07:31.734Z,11.12
2018-01-08T20:09:58.082Z,11.02
2018-01-08T20:12:24.456Z,10.68
2018-01-08T20:14:51.527Z,10.00
2018-01-08T20:17:18.613Z,9.93
2018-01-08T20:19:44.959Z,9.80
2018-01-08T20:22:11.328Z,9.90
2018-01-08T20:24:37.692Z,10.05
2018-01-08T20:27:04.063Z,9.45
2018-01-08T20:29:31.168Z,9.63
2018-01-08T20:31:57.541Z,9.75
2018-01-08T20:34:23.923Z,11.07
2018-01-08T20:36:50.258Z,10.82
2018-01-08T20:39:16.605Z,11.35
2018-01-08T20:41:42.965Z,9.95
2018-01-08T20:44:09.356Z,8.93
2018-01-08T20:46:35.724Z,9.35
2018-01-08T20:49:02.803Z,9.60
2018-01-08T20:51:29.168Z,9.60
2018-01-08T20:53:55.502Z,9.88
2018-01-08T20:56:21.811Z,9.85
2018-01-08T20:58:48.257Z,10.18
2018-01-08T21:01:15.310Z,10.70
2018-01-08T21:03:42.412Z,8.98
2018-01-08T21:06:08.823Z,10.60
2018-01-08T21:08:35.900Z,9.57
2018-01-08T21:11:02.256Z,9.45
2018-01-08T21:13:28.561Z,9.80
2018-01-08T21:15:55.650Z,9.95
2018-01-08T21:18:21.971Z,9.63
2018-01-08T21:20:49.048Z,10.10
2018-01-08T21:23:15.372Z,8.85
2018-01-08T21:25:42.467Z,10.23
2018-01-08T21:28:08.821Z,9.90
2018-01-08T21:30:35.172Z,10.43
2018-01-08T21:33:01.490Z,10.43
2018-01-08T21:35:27.815Z,9.50
2018-01-08T21:37:54.849Z,10.80
2018-01-08T21:40:21.161Z,10.40
2018-01-08T21:42:47.491Z,8.85
2018-01-08T21:45:13.848Z,10.35
2018-01-08T21:47:40.116Z,9.82
2018-01-08T21:50:06.442Z,9.48
2018-01-08T21:52:32.748Z,11.43
2018-01-08T21:54:59.032Z,10.88
2018-01-08T21:57:25.373Z,8.57
2018-01-08T21:59:51.638Z,9.52
2018-01-08T22:02:19.479Z,10.30
2018-01-08T22:04:45.730Z,9.20
2018-01-08T22:07:12.061Z,8.57
2018-01-08T22:09:38.381Z,8.45
2018-01-08T22:12:04.657Z,8.85
2018-01-08T22:14:30.922Z,8.38
2018-01-08T22:16:57.939Z,8.52
2018-01-08T22:19:24.177Z,8.43
2018-01-08T22:21:50.411Z,8.02
2018-01-08T22:24:16.638Z,9.40
2018-01-08T22:26:42.885Z,7.55
2018-01-08T22:29:09.154Z,8.00
2018-01-08T22:31:35.398Z,8.55
2018-01-08T22:34:01.644Z,8.30
2018-01-08T22:36:27.892Z,8.65
2018-01-08T22:38:54.154Z,8.32
2018-01-08T22:41:21.167Z,8.65
2018-01-08T22:43:47.413Z,8.65
2018-01-08T22:46:13.697Z,9.45
2018-01-08T22:48:40.675Z,8.82
2018-01-08T22:51:06.921Z,8.70
2018-01-08T22:53:33.170Z,9.18
2018-01-08T22:55:59.428Z,9.15
2018-01-08T22:58:25.713Z,9.30
2018-01-08T23:00:52.756Z,8.70
2018-01-08T23:03:19.830Z,8.75
2018-01-08T23:05:46.101Z,8.45
2018-01-08T23:08:12.346Z,8.70
2018-01-08T23:10:38.623Z,8.23
2018-01-08T23:13:05.200Z,8.07
2018-01-08T23:15:31.449Z,7.90
2018-01-08T23:17:57.815Z,8.63
2018-01-08T23:20:24.057Z,9.27
2018-01-08T23:22:50.321Z,9.35
2018-01-08T23:25:17.657Z,9.13
2018-01-08T23:27:44.950Z,9.52
2018-01-08T23:30:11.298Z,9.30
2018-01-08T23:32:39.224Z,9.35
2018-01-08T23:35:05.760Z,10.57
2018-01-08T23:37:32.778Z,9.40
2018-01-08T23:39:59.313Z,8.57
2018-01-08T23:42:26.782Z,9.45
2018-01-08T23:44:53.015Z,9.77
2018-01-08T23:47:19.297Z,10.30
2018-01-08T23:49:45.540Z,10.30
2018-01-08T23:52:11.822Z,9.57
2018-01-08T23:54:39.479Z,9.68
2018-01-08T23:57:06.033Z,11.18
2018-01-08T23:59:33.037Z,11.15
